createdAt,value
2023-02-06T00:00:28.950Z,93.24
2023-02-06T00:01:28.948Z,93.24
2023-02-06T00:02:46.803Z,93.24
2023-02-06T00:03:28.908Z,92.83
2023-02-06T00:04:28.880Z,92.63
2023-02-06T00:05:39.354Z,93.04
2023-02-06T00:06:28.956Z,93.04
2023-02-06T00:07:28.878Z,93.76
2023-02-06T00:08:29.014Z,93.97
2023-02-06T00:09:28.856Z,93.04
2023-02-06T00:10:28.820Z,92.52
2023-02-06T00:11:28.903Z,92.32
2023-02-06T00:12:28.808Z,92.32
2023-02-06T00:13:28.818Z,92.42
2023-02-06T00:14:28.995Z,92.52
2023-02-06T00:15:28.944Z,92.42
2023-02-06T00:16:28.851Z,92.32
2023-02-06T00:17:28.801Z,92.21
2023-02-06T00:18:28.766Z,92.21
2023-02-06T00:19:28.748Z,92.32
2023-02-06T00:21:02.358Z,92.52
2023-02-06T00:21:28.789Z,92.63
2023-02-06T00:22:28.806Z,92.83
2023-02-06T00:23:28.798Z,92.83
2023-02-06T00:24:28.692Z,92.83
2023-02-06T00:25:28.653Z,93.04
2023-02-06T00:26:28.666Z,93.04
2023-02-06T00:27:28.730Z,93.04
2023-02-06T00:28:28.624Z,92.93
2023-02-06T00:29:28.690Z,93.04
2023-02-06T00:30:28.750Z,93.35
2023-02-06T00:31:28.706Z,92.93
2023-02-06T00:32:28.686Z,92.52
2023-02-06T00:33:43.725Z,92.32
2023-02-06T00:34:28.721Z,92.42
2023-02-06T00:35:28.582Z,92.63
2023-02-06T00:36:28.554Z,91.80
2023-02-06T00:37:28.603Z,92.00
2023-02-06T00:38:28.644Z,92.11
2023-02-06T00:39:28.631Z,91.49
2023-02-06T00:40:28.540Z,90.80
2023-02-06T00:41:28.810Z,91.22
2023-02-06T00:42:28.521Z,91.74
2023-02-06T00:43:28.547Z,92.25
2023-02-06T00:44:28.500Z,91.74
2023-02-06T00:45:28.482Z,91.84
2023-02-06T00:46:28.502Z,92.25
2023-02-06T00:47:28.467Z,92.61
2023-02-06T00:48:28.741Z,92.30
2023-02-06T00:49:28.452Z,92.05
2023-02-06T00:50:28.446Z,92.15
2023-02-06T00:51:28.519Z,91.63
2023-02-06T00:52:28.444Z,91.84
2023-02-06T00:53:28.451Z,92.05
2023-02-06T00:54:28.390Z,92.15
2023-02-06T00:55:28.390Z,92.05
2023-02-06T00:56:28.382Z,91.11
2023-02-06T00:57:38.336Z,91.01
2023-02-06T00:58:28.362Z,90.80
2023-02-06T00:59:51.811Z,90.80
2023-02-06T01:00:28.577Z,90.60
2023-02-06T01:01:28.504Z,90.29
2023-02-06T01:02:43.949Z,90.08
2023-02-06T01:03:28.293Z,89.98
2023-02-06T01:04:28.265Z,90.08
2023-02-06T01:05:28.321Z,90.39
2023-02-06T01:06:28.595Z,90.08
2023-02-06T01:07:28.338Z,90.08
2023-02-06T01:08:28.273Z,89.67
2023-02-06T01:09:28.236Z,89.87
2023-02-06T01:10:28.269Z,90.29
2023-02-06T01:11:28.221Z,89.77
2023-02-06T01:12:28.214Z,89.25
2023-02-06T01:13:28.176Z,89.25
2023-02-06T01:14:28.211Z,89.15
2023-02-06T01:15:28.194Z,88.94
2023-02-06T01:16:28.217Z,88.84
2023-02-06T01:17:28.174Z,88.74
2023-02-06T01:18:28.395Z,88.43
2023-02-06T01:19:28.143Z,88.74
2023-02-06T01:20:28.134Z,88.12
2023-02-06T01:21:28.215Z,88.12
2023-02-06T01:22:28.119Z,87.70
2023-02-06T01:23:28.095Z,87.39
2023-02-06T01:24:28.077Z,87.60
2023-02-06T01:25:28.109Z,88.12
2023-02-06T01:26:28.042Z,88.22
2023-02-06T01:27:28.084Z,88.12
2023-02-06T01:28:47.218Z,88.22
2023-02-06T01:29:28.106Z,88.22
2023-02-06T01:30:28.008Z,88.53
2023-02-06T01:31:28.049Z,88.53
2023-02-06T01:32:28.049Z,88.49
2023-02-06T01:33:27.987Z,88.22
2023-02-06T01:34:27.960Z,88.43
2023-02-06T01:35:28.097Z,88.64
2023-02-06T01:36:28.010Z,88.43
2023-02-06T01:37:28.336Z,89.04
2023-02-06T01:38:28.334Z,89.40
2023-02-06T01:39:27.924Z,89.92
2023-02-06T01:40:28.015Z,90.23
2023-02-06T01:41:27.941Z,90.44
2023-02-06T01:42:27.863Z,90.53
2023-02-06T01:43:27.918Z,90.33
2023-02-06T01:44:27.907Z,90.44
2023-02-06T01:45:27.930Z,90.53
2023-02-06T01:46:27.875Z,90.64
2023-02-06T01:47:27.866Z,90.84
2023-02-06T01:48:27.851Z,90.74
2023-02-06T01:49:27.826Z,90.84
2023-02-06T01:50:27.849Z,90.84
2023-02-06T01:51:27.861Z,90.74
2023-02-06T01:52:27.764Z,90.84
2023-02-06T01:53:27.788Z,90.95
2023-02-06T01:54:27.784Z,90.95
2023-02-06T01:55:27.748Z,91.05
2023-02-06T01:56:27.745Z,91.05
2023-02-06T01:57:27.746Z,91.16
2023-02-06T01:58:27.762Z,91.26
2023-02-06T01:59:27.766Z,91.05
2023-02-06T02:00:27.782Z,91.16
2023-02-06T02:01:27.730Z,91.05
2023-02-06T02:02:27.795Z,91.16
2023-02-06T02:03:27.677Z,91.05
2023-02-06T02:04:27.688Z,91.16
2023-02-06T02:05:27.689Z,90.95
2023-02-06T02:06:27.672Z,90.95
2023-02-06T02:07:27.661Z,90.64
2023-02-06T02:08:27.615Z,90.44
2023-02-06T02:09:27.711Z,90.64
2023-02-06T02:10:27.642Z,90.53
2023-02-06T02:11:27.643Z,90.53
2023-02-06T02:12:27.628Z,90.64
2023-02-06T02:13:27.627Z,90.53
2023-02-06T02:14:27.572Z,90.74
2023-02-06T02:15:27.564Z,91.30
2023-02-06T02:16:27.751Z,91.26
2023-02-06T02:17:27.664Z,91.26
2023-02-06T02:18:27.502Z,90.95
2023-02-06T02:19:27.608Z,90.84
2023-02-06T02:20:27.496Z,90.84
2023-02-06T02:21:27.620Z,90.84
2023-02-06T02:22:27.497Z,91.05
2023-02-06T02:23:27.502Z,91.20
2023-02-06T02:24:28.053Z,91.51
2023-02-06T02:25:27.521Z,92.03
2023-02-06T02:26:27.479Z,91.93
2023-02-06T02:27:27.470Z,91.93
2023-02-06T02:28:27.433Z,92.13
2023-02-06T02:29:27.439Z,92.44
2023-02-06T02:30:27.434Z,92.55
2023-02-06T02:31:27.520Z,92.96
2023-02-06T02:32:27.380Z,93.16
2023-02-06T02:33:27.390Z,93.27
2023-02-06T02:34:27.375Z,93.37
2023-02-06T02:35:27.358Z,93.48
2023-02-06T02:36:27.575Z,93.16
2023-02-06T02:37:27.344Z,93.16
2023-02-06T02:38:27.321Z,93.27
2023-02-06T02:39:27.334Z,93.48
2023-02-06T02:40:27.332Z,93.79
2023-02-06T02:41:27.372Z,93.37
2023-02-06T02:42:27.345Z,93.37
2023-02-06T02:43:27.317Z,93.58
2023-02-06T02:44:27.269Z,93.58
2023-02-06T02:45:27.297Z,93.16
2023-02-06T02:46:27.299Z,93.16
2023-02-06T02:47:27.308Z,93.41
2023-02-06T02:48:27.283Z,93.48
2023-02-06T02:49:27.309Z,93.68
2023-02-06T02:50:27.288Z,93.58
2023-02-06T02:51:27.240Z,93.48
2023-02-06T02:52:27.187Z,93.16
2023-02-06T02:53:27.210Z,92.65
2023-02-06T02:54:27.236Z,92.34
2023-02-06T02:55:27.232Z,92.18
2023-02-06T02:56:27.243Z,91.97
2023-02-06T02:57:27.202Z,92.28
2023-02-06T02:58:27.162Z,91.66
2023-02-06T02:59:27.134Z,91.35
2023-02-06T03:00:27.121Z,91.55
2023-02-06T03:01:27.130Z,91.55
2023-02-06T03:02:27.155Z,90.52
2023-02-06T03:03:27.213Z,90.83
2023-02-06T03:04:27.079Z,90.62
2023-02-06T03:05:27.020Z,89.38
2023-02-06T03:06:27.086Z,89.38
2023-02-06T03:07:27.039Z,89.38
2023-02-06T03:08:27.087Z,88.45
2023-02-06T03:09:27.012Z,88.86
2023-02-06T03:10:27.008Z,89.28
2023-02-06T03:11:27.066Z,88.86
2023-02-06T03:12:26.966Z,88.55
2023-02-06T03:13:26.976Z,88.59
2023-02-06T03:14:27.019Z,88.59
2023-02-06T03:15:26.959Z,88.28
2023-02-06T03:16:27.265Z,88.18
2023-02-06T03:17:26.944Z,88.07
2023-02-06T03:18:26.949Z,88.18
2023-02-06T03:19:26.921Z,88.18
2023-02-06T03:20:26.972Z,88.39
2023-02-06T03:21:26.905Z,88.18
2023-02-06T03:22:26.903Z,88.59
2023-02-06T03:23:26.896Z,89.00
2023-02-06T03:24:26.846Z,88.79
2023-02-06T03:25:26.929Z,88.48
2023-02-06T03:26:26.869Z,88.79
2023-02-06T03:27:26.863Z,88.79
2023-02-06T03:28:26.842Z,88.39
2023-02-06T03:29:26.881Z,88.39
2023-02-06T03:30:26.842Z,88.18
2023-02-06T03:31:26.881Z,87.97
2023-02-06T03:32:26.792Z,87.97
2023-02-06T03:33:26.772Z,87.87
2023-02-06T03:34:26.796Z,87.87
2023-02-06T03:35:26.766Z,88.39
2023-02-06T03:36:26.778Z,88.79
2023-02-06T03:37:26.762Z,88.79
2023-02-06T03:38:26.721Z,89.31
2023-02-06T03:39:26.719Z,89.94
2023-02-06T03:40:26.717Z,90.66
2023-02-06T03:41:26.742Z,91.39
2023-02-06T03:42:26.749Z,90.62
2023-02-06T03:43:26.702Z,89.17
2023-02-06T03:44:26.735Z,88.76
2023-02-06T03:45:26.644Z,88.65
2023-02-06T03:46:26.922Z,88.39
2023-02-06T03:47:26.647Z,88.69
2023-02-06T03:48:26.654Z,88.79
2023-02-06T03:49:26.581Z,88.48
2023-02-06T03:50:26.604Z,88.69
2023-02-06T03:51:26.604Z,89.00
2023-02-06T03:52:26.566Z,89.52
2023-02-06T03:53:26.538Z,90.14
2023-02-06T03:54:26.574Z,89.73
2023-02-06T03:55:26.641Z,89.52
2023-02-06T03:56:26.582Z,88.18
2023-02-06T03:57:26.553Z,87.24
2023-02-06T03:58:26.542Z,86.83
2023-02-06T03:59:26.511Z,87.04
2023-02-06T04:00:26.522Z,87.76
2023-02-06T04:01:26.507Z,88.48
2023-02-06T04:02:26.606Z,89.31
2023-02-06T04:03:26.458Z,89.00
2023-02-06T04:04:26.451Z,89.11
2023-02-06T04:05:26.499Z,88.59
2023-02-06T04:06:26.463Z,88.18
2023-02-06T04:07:26.524Z,88.07
2023-02-06T04:08:26.412Z,88.18
2023-02-06T04:09:26.417Z,87.76
2023-02-06T04:10:26.603Z,87.35
2023-02-06T04:11:26.405Z,88.07
2023-02-06T04:12:26.436Z,88.69
2023-02-06T04:13:26.383Z,88.18
2023-02-06T04:14:26.787Z,88.01
2023-02-06T04:15:26.412Z,87.55
2023-02-06T04:16:26.461Z,87.24
2023-02-06T04:17:43.110Z,87.28
2023-02-06T04:18:26.337Z,87.59
2023-02-06T04:19:26.358Z,87.90
2023-02-06T04:20:26.309Z,87.90
2023-02-06T04:21:26.392Z,88.73
2023-02-06T04:22:26.280Z,88.21
2023-02-06T04:23:26.283Z,88.11
2023-02-06T04:24:26.235Z,88.53
2023-02-06T04:25:26.302Z,89.11
2023-02-06T04:26:26.288Z,89.00
2023-02-06T04:27:26.294Z,88.39
2023-02-06T04:28:26.204Z,87.87
2023-02-06T04:29:26.211Z,88.53
2023-02-06T04:30:26.212Z,89.04
2023-02-06T04:31:26.260Z,90.19
2023-02-06T04:32:26.246Z,89.31
2023-02-06T04:33:26.156Z,88.39
2023-02-06T04:34:26.130Z,88.18
2023-02-06T04:35:26.145Z,87.97
2023-02-06T04:36:26.164Z,88.48
2023-02-06T04:37:26.170Z,88.18
2023-02-06T04:38:26.144Z,88.48
2023-02-06T04:39:26.087Z,89.00
2023-02-06T04:40:26.125Z,90.14
2023-02-06T04:41:26.105Z,89.62
2023-02-06T04:42:26.090Z,88.90
2023-02-06T04:43:26.061Z,88.90
2023-02-06T04:44:41.642Z,88.63
2023-02-06T04:45:26.330Z,89.15
2023-02-06T04:46:26.177Z,89.46
2023-02-06T04:47:26.037Z,90.08
2023-02-06T04:48:25.995Z,90.39
2023-02-06T04:49:26.007Z,89.77
2023-02-06T04:50:26.016Z,89.67
2023-02-06T04:51:26.007Z,90.19
2023-02-06T04:52:37.308Z,90.81
2023-02-06T04:53:26.112Z,91.22
2023-02-06T04:54:25.954Z,90.91
2023-02-06T04:55:47.562Z,91.02
2023-02-06T04:56:26.116Z,91.43
2023-02-06T04:57:26.147Z,91.12
2023-02-06T04:58:26.000Z,90.70
2023-02-06T04:59:26.021Z,90.08
2023-02-06T05:00:25.892Z,90.29
2023-02-06T05:01:25.862Z,90.39
2023-02-06T05:02:25.957Z,89.98
2023-02-06T05:03:25.937Z,90.19
2023-02-06T05:04:25.893Z,90.08
2023-02-06T05:05:25.833Z,90.19
2023-02-06T05:06:25.868Z,90.60
2023-02-06T05:07:25.829Z,91.43
2023-02-06T05:08:25.817Z,91.43
2023-02-06T05:09:25.784Z,91.53
2023-02-06T05:10:25.797Z,91.12
2023-02-06T05:11:25.776Z,90.81
2023-02-06T05:12:25.779Z,90.50
2023-02-06T05:13:25.757Z,90.75
2023-02-06T05:14:25.732Z,92.41
2023-02-06T05:15:25.754Z,92.47
2023-02-06T05:16:25.736Z,92.16
2023-02-06T05:17:25.749Z,92.05
2023-02-06T05:18:25.679Z,92.26
2023-02-06T05:19:25.642Z,92.57
2023-02-06T05:20:25.690Z,92.88
2023-02-06T05:21:25.680Z,92.88
2023-02-06T05:22:25.664Z,92.47
2023-02-06T05:23:42.202Z,90.75
2023-02-06T05:24:25.737Z,90.29
2023-02-06T05:25:25.716Z,90.23
2023-02-06T05:26:25.653Z,89.61
2023-02-06T05:27:25.655Z,89.29
2023-02-06T05:28:25.603Z,89.50
2023-02-06T05:29:25.613Z,89.61
2023-02-06T05:30:25.609Z,90.02
2023-02-06T05:31:25.633Z,91.16
2023-02-06T05:32:25.493Z,92.41
2023-02-06T05:33:25.568Z,91.37
2023-02-06T05:34:25.519Z,91.58
2023-02-06T05:35:25.546Z,91.64
2023-02-06T05:36:25.540Z,91.53
2023-02-06T05:37:25.549Z,91.12
2023-02-06T05:38:25.519Z,90.91
2023-02-06T05:39:25.553Z,90.81
2023-02-06T05:40:25.518Z,90.39
2023-02-06T05:41:25.508Z,89.25
2023-02-06T05:42:25.445Z,89.09
2023-02-06T05:43:25.466Z,89.50
2023-02-06T05:44:25.466Z,89.81
2023-02-06T05:45:25.449Z,89.92
2023-02-06T05:46:25.438Z,90.85
2023-02-06T05:47:25.406Z,91.16
2023-02-06T05:48:25.383Z,90.95
2023-02-06T05:49:25.434Z,90.95
2023-02-06T05:50:25.416Z,90.75
2023-02-06T05:51:25.480Z,89.71
2023-02-06T05:52:25.392Z,90.12
2023-02-06T05:53:25.467Z,90.44
2023-02-06T05:54:25.429Z,89.29
2023-02-06T05:55:25.344Z,89.19
2023-02-06T05:56:25.391Z,91.02
2023-02-06T05:57:25.300Z,89.98
2023-02-06T05:58:25.355Z,89.98
2023-02-06T05:59:25.376Z,90.19
2023-02-06T06:00:25.450Z,89.46
2023-02-06T06:01:25.339Z,89.36
2023-02-06T06:02:25.337Z,89.15
2023-02-06T06:03:25.364Z,88.63
2023-02-06T06:04:25.353Z,88.94
2023-02-06T06:05:25.317Z,90.08
2023-02-06T06:06:25.263Z,90.60
2023-02-06T06:07:25.225Z,90.70
2023-02-06T06:08:25.183Z,90.70
2023-02-06T06:09:25.286Z,90.70
2023-02-06T06:10:25.189Z,90.39
2023-02-06T06:11:25.191Z,90.29
2023-02-06T06:12:25.245Z,89.77
2023-02-06T06:13:25.248Z,88.94
2023-02-06T06:14:25.358Z,89.46
2023-02-06T06:15:42.365Z,88.53
2023-02-06T06:16:25.271Z,87.49
2023-02-06T06:17:25.177Z,87.38
2023-02-06T06:18:25.029Z,87.49
2023-02-06T06:19:25.188Z,87.70
2023-02-06T06:20:25.146Z,87.90
2023-02-06T06:21:25.487Z,88.36
2023-02-06T06:22:25.158Z,88.78
2023-02-06T06:23:25.084Z,89.25
2023-02-06T06:24:25.125Z,88.73
2023-02-06T06:25:25.018Z,88.32
2023-02-06T06:26:25.047Z,88.26
2023-02-06T06:27:25.098Z,88.21
2023-02-06T06:28:25.087Z,87.95
2023-02-06T06:29:25.042Z,87.95
2023-02-06T06:30:25.068Z,88.05
2023-02-06T06:31:25.141Z,88.15
2023-02-06T06:32:25.014Z,88.36
2023-02-06T06:33:34.922Z,88.26
2023-02-06T06:34:25.128Z,88.15
2023-02-06T06:35:25.013Z,87.43
2023-02-06T06:36:25.014Z,87.22
2023-02-06T06:37:24.891Z,87.74
2023-02-06T06:38:25.017Z,89.29
2023-02-06T06:39:25.041Z,89.61
2023-02-06T06:40:24.923Z,89.36
2023-02-06T06:41:24.949Z,89.04
2023-02-06T06:42:24.860Z,89.04
2023-02-06T06:43:24.886Z,89.04
2023-02-06T06:44:24.803Z,88.63
2023-02-06T06:45:24.893Z,88.11
2023-02-06T06:46:24.872Z,88.21
2023-02-06T06:47:24.862Z,88.53
2023-02-06T06:48:24.855Z,88.84
2023-02-06T06:49:24.787Z,88.53
2023-02-06T06:50:24.834Z,87.90
2023-02-06T06:51:24.934Z,87.90
2023-02-06T06:52:25.862Z,88.11
2023-02-06T06:53:24.737Z,88.21
2023-02-06T06:54:24.748Z,88.05
2023-02-06T06:55:24.756Z,88.05
2023-02-06T06:56:24.725Z,88.46
2023-02-06T06:57:24.810Z,88.67
2023-02-06T06:58:24.736Z,88.57
2023-02-06T06:59:24.756Z,88.53
2023-02-06T07:00:24.679Z,88.78
2023-02-06T07:01:24.777Z,88.88
2023-02-06T07:02:24.652Z,88.98
2023-02-06T07:03:24.931Z,89.25
2023-02-06T07:04:24.639Z,89.98
2023-02-06T07:05:24.597Z,89.98
2023-02-06T07:06:24.620Z,89.67
2023-02-06T07:07:24.710Z,89.36
2023-02-06T07:08:24.624Z,89.46
2023-02-06T07:09:24.654Z,89.77
2023-02-06T07:10:24.694Z,90.08
2023-02-06T07:11:24.728Z,89.73
2023-02-06T07:12:24.522Z,89.52
2023-02-06T07:13:24.573Z,88.94
2023-02-06T07:14:24.654Z,89.15
2023-02-06T07:15:24.506Z,89.46
2023-02-06T07:16:24.626Z,89.67
2023-02-06T07:17:24.498Z,89.46
2023-02-06T07:18:24.577Z,89.67
2023-02-06T07:19:24.473Z,89.15
2023-02-06T07:20:24.500Z,88.84
2023-02-06T07:21:24.550Z,88.21
2023-02-06T07:22:24.467Z,88.32
2023-02-06T07:23:24.470Z,88.94
2023-02-06T07:24:24.598Z,89.67
2023-02-06T07:25:24.460Z,90.70
2023-02-06T07:26:24.486Z,90.35
2023-02-06T07:27:24.425Z,90.25
2023-02-06T07:28:24.385Z,89.62
2023-02-06T07:29:24.436Z,88.69
2023-02-06T07:30:24.462Z,88.18
2023-02-06T07:31:24.402Z,88.48
2023-02-06T07:32:24.435Z,88.39
2023-02-06T07:33:24.404Z,88.69
2023-02-06T07:34:24.334Z,89.11
2023-02-06T07:35:24.496Z,89.21
2023-02-06T07:36:24.295Z,89.31
2023-02-06T07:37:24.359Z,89.31
2023-02-06T07:38:24.295Z,89.31
2023-02-06T07:39:24.269Z,89.83
2023-02-06T07:40:25.191Z,89.52
2023-02-06T07:41:24.290Z,89.79
2023-02-06T07:42:24.314Z,89.17
2023-02-06T07:43:24.260Z,88.65
2023-02-06T07:44:24.287Z,88.45
2023-02-06T07:45:24.293Z,87.30
2023-02-06T07:46:24.342Z,87.93
2023-02-06T07:47:24.258Z,87.57
2023-02-06T07:48:24.265Z,87.30
2023-02-06T07:49:24.273Z,87.41
2023-02-06T07:50:24.171Z,87.30
2023-02-06T07:51:24.300Z,87.41
2023-02-06T07:52:24.353Z,87.93
2023-02-06T07:53:24.430Z,88.65
2023-02-06T07:54:24.178Z,89.07
2023-02-06T07:55:24.172Z,89.89
2023-02-06T07:56:24.094Z,89.48
2023-02-06T07:57:24.213Z,89.65
2023-02-06T07:58:24.105Z,87.37
2023-02-06T07:59:24.141Z,87.47
2023-02-06T08:00:24.243Z,87.47
2023-02-06T08:01:24.288Z,87.88
2023-02-06T08:02:24.056Z,88.40
2023-02-06T08:03:24.596Z,88.40
2023-02-06T08:04:24.195Z,88.09
2023-02-06T08:05:24.092Z,89.23
2023-02-06T08:06:24.522Z,87.99
2023-02-06T08:07:24.484Z,86.85
2023-02-06T08:08:24.352Z,88.40
2023-02-06T08:09:24.034Z,87.99
2023-02-06T08:10:23.983Z,87.99
2023-02-06T08:11:23.984Z,86.65
2023-02-06T08:12:23.942Z,86.02
2023-02-06T08:13:23.913Z,84.99
2023-02-06T08:14:24.104Z,86.23
2023-02-06T08:15:23.963Z,86.02
2023-02-06T08:16:23.984Z,85.50
2023-02-06T08:17:23.980Z,84.68
2023-02-06T08:18:23.963Z,83.75
2023-02-06T08:19:23.960Z,81.88
2023-02-06T08:20:23.827Z,82.92
2023-02-06T08:21:24.252Z,85.92
2023-02-06T08:22:23.981Z,85.36
2023-02-06T08:23:23.806Z,81.33
2023-02-06T08:24:23.902Z,82.78
2023-02-06T08:25:23.817Z,82.67
2023-02-06T08:26:23.833Z,78.57
2023-02-06T08:27:24.024Z,80.43
2023-02-06T08:28:23.825Z,81.26
2023-02-06T08:29:24.185Z,81.37
2023-02-06T08:30:23.990Z,81.05
2023-02-06T08:31:24.030Z,79.40
2023-02-06T08:32:23.820Z,78.36
2023-02-06T08:33:23.760Z,78.88
2023-02-06T08:34:23.711Z,77.95
2023-02-06T08:35:23.778Z,78.43
2023-02-06T08:36:23.708Z,79.09
2023-02-06T08:37:23.679Z,79.57
2023-02-06T08:38:23.864Z,79.26
2023-02-06T08:39:23.710Z,79.47
2023-02-06T08:40:23.865Z,78.33
2023-02-06T08:41:23.732Z,75.53
2023-02-06T08:42:23.996Z,77.05
2023-02-06T08:43:24.031Z,77.91
2023-02-06T08:44:23.813Z,74.71
2023-02-06T08:45:23.588Z,75.32
2023-02-06T08:46:23.663Z,79.67
2023-02-06T08:47:23.717Z,78.33
2023-02-06T08:48:23.596Z,77.05
2023-02-06T08:49:24.030Z,78.19
2023-02-06T08:50:23.859Z,77.98
2023-02-06T08:51:23.626Z,77.26
2023-02-06T08:52:23.555Z,75.88
2023-02-06T08:53:23.561Z,73.64
2023-02-06T08:54:23.670Z,73.22
2023-02-06T08:55:25.171Z,73.22
2023-02-06T08:56:23.490Z,74.40
2023-02-06T08:57:23.455Z,74.40
2023-02-06T08:58:23.487Z,74.29
2023-02-06T08:59:23.798Z,73.98
2023-02-06T09:00:23.782Z,74.60
2023-02-06T09:02:34.274Z,77.91
2023-02-06T09:03:35.171Z,76.88
2023-02-06T09:04:44.312Z,76.84
2023-02-06T09:05:35.878Z,74.98
2023-02-06T09:06:35.184Z,72.91
2023-02-06T09:07:35.132Z,73.05
2023-02-06T09:08:35.127Z,73.15
2023-02-06T09:09:35.117Z,74.29
2023-02-06T09:10:35.364Z,75.43
2023-02-06T09:11:35.110Z,74.26
2023-02-06T09:12:35.094Z,73.33
2023-02-06T09:13:35.077Z,73.64
2023-02-06T09:14:35.126Z,74.88
2023-02-06T09:15:35.480Z,74.88
2023-02-06T09:16:35.050Z,75.29
2023-02-06T09:17:35.042Z,73.54
2023-02-06T09:18:35.199Z,73.33
2023-02-06T09:19:35.033Z,73.94
2023-02-06T09:20:35.003Z,74.29
2023-02-06T09:21:34.995Z,74.98
2023-02-06T09:22:35.006Z,73.84
2023-02-06T09:23:34.982Z,73.43
2023-02-06T09:24:34.962Z,74.67
2023-02-06T09:25:35.533Z,74.77
2023-02-06T09:26:34.964Z,75.50
2023-02-06T09:27:34.952Z,73.64
2023-02-06T09:28:34.917Z,71.98
2023-02-06T09:29:34.939Z,71.26
2023-02-06T09:30:34.951Z,71.57
2023-02-06T09:31:35.000Z,72.60
2023-02-06T09:32:35.089Z,71.36
2023-02-06T09:33:34.962Z,70.64
2023-02-06T09:34:34.869Z,70.22
2023-02-06T09:35:35.414Z,70.22
2023-02-06T09:36:34.873Z,70.22
2023-02-06T09:37:34.899Z,69.22
2023-02-06T09:38:34.825Z,69.53
2023-02-06T09:39:34.843Z,70.67
2023-02-06T09:40:34.804Z,69.56
2023-02-06T09:41:34.880Z,69.95
2023-02-06T09:42:35.537Z,70.36
2023-02-06T09:43:34.788Z,70.26
2023-02-06T09:44:34.773Z,70.36
2023-02-06T09:45:35.109Z,70.87
2023-02-06T09:46:35.006Z,71.50
2023-02-06T09:47:34.760Z,70.74
2023-02-06T09:48:34.749Z,70.67
2023-02-06T09:49:34.714Z,71.26
2023-02-06T09:50:34.709Z,70.01
2023-02-06T09:51:34.686Z,70.98
2023-02-06T09:52:34.699Z,71.39
2023-02-06T09:53:34.690Z,71.50
2023-02-06T09:54:34.709Z,72.02
2023-02-06T09:55:35.053Z,70.77
2023-02-06T09:56:34.643Z,70.84
2023-02-06T09:57:34.675Z,71.36
2023-02-06T09:58:34.662Z,70.74
2023-02-06T09:59:34.613Z,71.15
2023-02-06T10:00:34.637Z,69.81
2023-02-06T10:01:34.625Z,70.12
2023-02-06T10:02:34.705Z,69.81
2023-02-06T10:03:34.649Z,70.26
2023-02-06T10:04:34.914Z,70.87
2023-02-06T10:05:35.022Z,71.29
2023-02-06T10:06:34.607Z,72.19
2023-02-06T10:07:34.574Z,71.57
2023-02-06T10:08:34.618Z,70.95
2023-02-06T10:09:34.526Z,70.12
2023-02-06T10:10:34.537Z,71.67
2023-02-06T10:11:34.553Z,71.78
2023-02-06T10:12:34.515Z,70.22
2023-02-06T10:13:34.482Z,71.05
2023-02-06T10:14:34.483Z,69.67
2023-02-06T10:15:34.860Z,69.92
2023-02-06T10:16:34.500Z,69.67
2023-02-06T10:17:34.445Z,68.85
2023-02-06T10:18:34.428Z,68.19
2023-02-06T10:19:34.431Z,67.88
2023-02-06T10:20:34.453Z,67.44
2023-02-06T10:21:34.392Z,67.44
2023-02-06T10:22:34.394Z,67.13
2023-02-06T10:23:34.379Z,67.10
2023-02-06T10:24:34.391Z,67.41
2023-02-06T10:25:34.596Z,66.17
2023-02-06T10:26:34.422Z,66.89
2023-02-06T10:27:34.332Z,66.89
2023-02-06T10:28:34.360Z,65.94
2023-02-06T10:29:34.522Z,65.62
2023-02-06T10:30:34.340Z,66.17
2023-02-06T10:31:34.390Z,65.86
2023-02-06T10:32:34.300Z,67.03
2023-02-06T10:33:34.409Z,67.82
2023-02-06T10:34:34.345Z,67.03
2023-02-06T10:35:34.961Z,67.85
2023-02-06T10:36:34.445Z,68.16
2023-02-06T10:37:34.372Z,67.65
2023-02-06T10:38:34.399Z,67.96
2023-02-06T10:39:34.333Z,67.44
2023-02-06T10:40:34.217Z,67.85
2023-02-06T10:41:34.266Z,67.34
2023-02-06T10:42:34.296Z,68.06
2023-02-06T10:43:34.202Z,67.34
2023-02-06T10:44:34.304Z,67.16
2023-02-06T10:45:34.578Z,67.06
2023-02-06T10:46:34.281Z,69.02
2023-02-06T10:47:34.275Z,67.68
2023-02-06T10:48:34.151Z,68.09
2023-02-06T10:49:34.287Z,69.02
2023-02-06T10:50:34.200Z,68.61
2023-02-06T10:51:34.252Z,69.02
2023-02-06T10:52:34.120Z,68.30
2023-02-06T10:53:34.088Z,68.78
2023-02-06T10:54:34.074Z,68.99
2023-02-06T10:55:34.260Z,66.85
2023-02-06T10:56:34.100Z,67.58
2023-02-06T10:57:34.058Z,67.47
2023-02-06T10:58:34.074Z,67.27
2023-02-06T10:59:34.048Z,66.96
2023-02-06T11:00:34.247Z,66.47
2023-02-06T11:01:34.073Z,66.88
2023-02-06T11:02:34.097Z,67.71
2023-02-06T11:03:34.097Z,67.09
2023-02-06T11:04:34.005Z,66.88
2023-02-06T11:05:34.065Z,67.50
2023-02-06T11:06:33.994Z,66.71
2023-02-06T11:07:33.991Z,67.71
2023-02-06T11:08:33.972Z,66.99
2023-02-06T11:09:33.927Z,67.40
2023-02-06T11:10:34.136Z,67.19
2023-02-06T11:11:33.924Z,67.30
2023-02-06T11:12:33.918Z,65.09
2023-02-06T11:13:33.972Z,64.89
2023-02-06T11:14:33.969Z,64.58
2023-02-06T11:15:34.252Z,64.89
2023-02-06T11:16:33.885Z,64.58
2023-02-06T11:17:33.845Z,64.68
2023-02-06T11:18:33.836Z,64.99
2023-02-06T11:19:33.875Z,64.96
2023-02-06T11:20:34.091Z,64.76
2023-02-06T11:21:33.968Z,64.55
2023-02-06T11:22:41.587Z,63.42
2023-02-06T11:23:33.829Z,63.21
2023-02-06T11:24:33.792Z,63.10
2023-02-06T11:25:33.823Z,63.62
2023-02-06T11:26:33.768Z,63.69
2023-02-06T11:27:33.767Z,63.59
2023-02-06T11:28:34.635Z,63.79
2023-02-06T11:29:33.725Z,64.52
2023-02-06T11:30:33.883Z,63.97
2023-02-06T11:31:33.849Z,63.67
2023-02-06T11:32:33.774Z,63.15
2023-02-06T11:33:33.763Z,62.53
2023-02-06T11:34:33.696Z,62.43
2023-02-06T11:35:33.824Z,62.22
2023-02-06T11:36:33.683Z,62.53
2023-02-06T11:37:33.703Z,62.94
2023-02-06T11:38:33.675Z,62.94
2023-02-06T11:39:33.632Z,63.84
2023-02-06T11:40:33.653Z,62.29
2023-02-06T11:41:34.836Z,61.88
2023-02-06T11:42:33.756Z,61.40
2023-02-06T11:43:33.605Z,62.12
2023-02-06T11:44:33.600Z,62.12
2023-02-06T11:45:33.607Z,62.84
2023-02-06T11:46:33.629Z,62.84
2023-02-06T11:47:33.809Z,62.29
2023-02-06T11:48:33.572Z,62.92
2023-02-06T11:49:33.601Z,62.19
2023-02-06T11:50:33.736Z,61.26
2023-02-06T11:51:33.527Z,60.75
2023-02-06T11:52:33.520Z,60.44
2023-02-06T11:53:33.514Z,58.58
2023-02-06T11:54:33.479Z,59.38
2023-02-06T11:55:33.822Z,60.02
2023-02-06T11:56:33.497Z,60.23
2023-02-06T11:57:33.505Z,60.02
2023-02-06T11:58:33.430Z,60.33
2023-02-06T11:59:33.442Z,60.44
2023-02-06T12:00:33.471Z,60.85
2023-02-06T12:01:33.447Z,60.51
2023-02-06T12:02:33.532Z,60.31
2023-02-06T12:03:35.197Z,59.79
2023-02-06T12:04:33.408Z,60.10
2023-02-06T12:05:33.452Z,60.82
2023-02-06T12:06:33.390Z,60.10
2023-02-06T12:07:34.057Z,60.41
2023-02-06T12:08:34.188Z,59.38
2023-02-06T12:09:33.367Z,59.48
2023-02-06T12:10:33.383Z,59.58
2023-02-06T12:11:33.365Z,60.21
2023-02-06T12:12:33.338Z,59.58
2023-02-06T12:13:33.319Z,59.69
2023-02-06T12:14:33.282Z,59.79
2023-02-06T12:15:46.020Z,59.51
2023-02-06T12:16:33.296Z,59.89
2023-02-06T12:17:33.267Z,60.31
2023-02-06T12:18:33.278Z,59.17
2023-02-06T12:19:33.241Z,59.38
2023-02-06T12:20:33.231Z,59.35
2023-02-06T12:21:33.234Z,59.14
2023-02-06T12:22:33.201Z,59.97
2023-02-06T12:23:33.227Z,59.45
2023-02-06T12:24:33.185Z,59.25
2023-02-06T12:25:33.270Z,59.45
2023-02-06T12:26:33.179Z,59.56
2023-02-06T12:27:33.205Z,59.66
2023-02-06T12:28:33.157Z,60.17
2023-02-06T12:29:33.141Z,60.59
2023-02-06T12:30:33.187Z,60.07
2023-02-06T12:31:33.231Z,59.56
2023-02-06T12:32:33.129Z,59.86
2023-02-06T12:33:33.093Z,60.07
2023-02-06T12:34:33.117Z,59.97
2023-02-06T12:35:34.367Z,60.00
2023-02-06T12:36:34.964Z,60.00
2023-02-06T12:37:33.170Z,59.79
2023-02-06T12:38:33.103Z,59.66
2023-02-06T12:39:33.080Z,59.77
2023-02-06T12:40:33.093Z,59.04
2023-02-06T12:41:33.032Z,58.84
2023-02-06T12:42:33.091Z,58.94
2023-02-06T12:43:32.997Z,59.25
2023-02-06T12:44:32.988Z,59.04
2023-02-06T12:45:33.065Z,59.04
2023-02-06T12:46:33.093Z,59.33
2023-02-06T12:47:32.991Z,58.60
2023-02-06T12:48:32.965Z,58.11
2023-02-06T12:49:32.949Z,57.39
2023-02-06T12:50:32.950Z,58.32
2023-02-06T12:51:32.920Z,59.04
2023-02-06T12:52:32.908Z,59.14
2023-02-06T12:53:32.999Z,58.94